Time;durP1;ratioP1;P1;durP2;ratioP2;P2;SDS_P1;SDS_P2;PMS_P1;PMS_P2;Temp;Humidity;BMP_temperature;BMP_pressure;BME280_temperature;BME280_humidity;BME280_pressure;Samples;Min_cycle;Max_cycle;Signal;HPM_P1;HPM_P2
2023/04/23 00:00:07;;;;;;;1.77;1.50;;;;;;;;;;461564;29;1186;-73
2023/04/23 00:01:01;;;;;;;1.50;1.40;;;;;;;;;;462371;29;1170;-74
2023/04/23 00:01:44;;;;;;;2.13;1.60;;;;;;;;;;458396;29;1380;-74
2023/04/23 00:02:31;;;;;;;;;;;;;;;;;;;;;
2023/04/23 00:03:11;;;;;;;2.05;1.67;;;;;;;;;;470419;29;1048;-73
2023/04/23 00:03:48;;;;;;;1.63;1.52;;;;;;;;;;471651;29;1214;-74
2023/04/23 00:04:10;;;;;;;2.25;1.70;;;;;;;;;;468624;29;1602;-73
2023/04/23 00:04:32;;;;;;;2.08;1.70;;;;;;;;;;469680;29;1382;-73
2023/04/23 00:04:56;;;;;;;2.85;1.77;;;;;;;;;;473616;29;1358;-74
2023/04/23 00:05:31;;;;;;;3.20;1.90;;;;;;;;;;468388;29;1195;-74
2023/04/23 00:06:36;;;;;;;1.65;1.50;;;;;;;;;;472130;29;1189;-73
2023/04/23 00:06:46;;;;;;;2.20;1.67;;;;;;;;;;467122;29;1576;-73
2023/04/23 00:07:21;;;;;;;1.98;1.70;;;;;;;;;;467443;29;1125;-73
2023/04/23 00:07:38;;;;;;;2.50;1.90;;;;;;;;;;466418;29;1254;-74
2023/04/23 00:08:09;;;;;;;2.38;1.90;;;;;;;;;;467519;29;1206;-74
2023/04/23 00:08:40;;;;;;;2.58;2.00;;;;;;;;;;471121;29;1425;-73
2023/04/23 00:09:00;;;;;;;1.77;1.65;;;;;;;;;;474154;29;1361;-74
2023/04/23 00:09:25;;;;;;;2.88;1.90;;;;;;;;;;470149;29;1326;-73
2023/04/23 00:09:46;;;;;;;2.75;1.80;;;;;;;;;;467586;29;1229;-74
2023/04/23 00:10:07;;;;;;;2.60;1.63;;;;;;;;;;465259;29;1077;-74
2023/04/23 00:10:24;;;;;;;2.88;1.75;;;;;;;;;;472847;29;1247;-74
2023/04/23 00:10:44;;;;;;;2.55;1.83;;;;;;;;;;469666;29;1210;-71
2023/04/23 00:11:06;;;;;;;2.77;1.90;;;;;;;;;;475262;29;1235;-73
2023/04/23 00:11:35;;;;;;;;;;;;;;;;;;;;;
2023/04/23 00:12:42;;;;;;;2.10;1.60;;;;;;;;;;465781;29;1057;-73
2023/04/23 00:13:10;;;;;;;2.70;1.60;;;;;;;;;;468652;29;1356;-73
2023/04/23 00:13:34;;;;;;;3.10;1.60;;;;;;;;;;466889;29;1506;-70
2023/04/23 00:14:14;;;;;;;2.67;1.80;;;;;;;;;;465881;29;929;-73
2023/04/23 00:14:45;;;;;;;2.20;1.70;;;;;;;;;;466706;29;1854;-73
2023/04/23 00:15:26;;;;;;;1.70;1.60;;;;;;;;;;466457;29;1176;-74
2023/04/23 00:16:05;;;;;;;1.83;1.63;;;;;;;;;;461986;29;1904;-74
2023/04/23 00:16:44;;;;;;;2.05;1.67;;;;;;;;;;460930;29;1233;-70
2023/04/23 00:17:35;;;;;;;1.90;1.70;;;;;;;;;;464232;29;1224;-74
2023/04/23 00:18:25;;;;;;;;;;;;;;;;;;;;;
2023/04/23 00:18:43;;;;;;;2.00;1.80;;;;;;;;;;468847;28;1607;-73
2023/04/23 00:19:17;;;;;;;;;;;;;;;;;;;;;
2023/04/23 00:19:39;;;;;;;1.90;1.70;;;;;;;;;;474992;28;1102;-73
2023/04/23 00:20:01;;;;;;;1.95;1.70;;;;;;;;;;476046;28;1225;-74
2023/04/23 00:20:40;;;;;;;2.08;1.60;;;;;;;;;;471700;29;1712;-74
2023/04/23 00:21:08;;;;;;;2.03;1.80;;;;;;;;;;465615;29;1357;-72
2023/04/23 00:21:52;;;;;;;2.30;1.80;;;;;;;;;;463562;29;1227;-74
2023/04/23 00:22:19;;;;;;;2.00;1.80;;;;;;;;;;465708;29;1238;-73
2023/04/23 00:22:38;;;;;;;3.05;1.77;;;;;;;;;;475260;29;1302;-72
2023/04/23 00:23:05;;;;;;;3.03;1.73;;;;;;;;;;469394;29;1136;-73
2023/04/23 00:23:26;;;;;;;2.60;1.90;;;;;;;;;;470727;29;912;-73
2023/04/23 00:23:56;;;;;;;;;;;;;;;;;;;;;
2023/04/23 00:24:15;;;;;;;3.05;1.80;;;;;;;;;;474441;28;1062;-73
2023/04/23 00:24:32;;;;;;;2.28;1.80;;;;;;;;;;478624;28;1114;-74
2023/04/23 00:24:52;;;;;;;2.22;1.75;;;;;;;;;;475653;29;1186;-74
2023/04/23 00:25:56;;;;;;;;;;;;;;;;;;;;;
2023/04/23 00:26:16;;;;;;;2.15;1.80;;;;;;;;;;471235;29;1044;-73
2023/04/23 00:26:41;;;;;;;2.50;1.80;;;;;;;;;;472215;29;1139;-73
2023/04/23 00:27:05;;;;;;;2.10;1.75;;;;;;;;;;473300;29;1253;-73
2023/04/23 00:28:05;;;;;;;1.90;1.60;;;;;;;;;;472282;29;1298;-73
2023/04/23 00:28:29;;;;;;;4.40;1.90;;;;;;;;;;467423;29;1180;-73
2023/04/23 00:29:14;;;;;;;2.13;1.92;;;;;;;;;;476475;28;2009;-74
2023/04/23 00:30:11;;;;;;;2.20;1.90;;;;;;;;;;480381;28;1086;-73
2023/04/23 00:30:30;;;;;;;2.22;1.80;;;;;;;;;;479416;28;1454;-73
2023/04/23 00:30:49;;;;;;;2.15;1.90;;;;;;;;;;485002;28;1147;-74
2023/04/23 00:31:16;;;;;;;2.05;1.80;;;;;;;;;;480941;28;1340;-73
2023/04/23 00:31:34;;;;;;;2.58;1.90;;;;;;;;;;478809;28;1360;-74
2023/04/23 00:31:55;;;;;;;3.42;2.20;;;;;;;;;;478216;28;1700;-73
2023/04/23 00:32:21;;;;;;;2.85;1.90;;;;;;;;;;478106;28;1307;-73
2023/04/23 00:32:40;;;;;;;1.98;1.77;;;;;;;;;;488254;28;1312;-73
2023/04/23 00:32:59;;;;;;;2.72;1.98;;;;;;;;;;479780;28;1425;-73
2023/04/23 00:33:44;;;;;;;3.15;2.10;;;;;;;;;;480107;28;1422;-73
2023/04/23 00:34:21;;;;;;;2.58;2.08;;;;;;;;;;477974;28;1360;-72
2023/04/23 00:34:58;;;;;;;;;;;;;;;;;;;;;
2023/04/23 00:36:04;;;;;;;;;;;;;;;;;;;;;
2023/04/23 00:36:43;;;;;;;2.47;1.90;;;;;;;;;;499607;27;1189;-71
2023/04/23 00:37:22;;;;;;;2.95;2.00;;;;;;;;;;481248;28;1564;-74
2023/04/23 00:37:50;;;;;;;2.13;1.90;;;;;;;;;;484960;28;1563;-72
2023/04/23 00:38:11;;;;;;;2.38;1.90;;;;;;;;;;489208;28;1283;-73
2023/04/23 00:38:36;;;;;;;;;;;;;;;;;;;;;
2023/04/23 00:39:05;;;;;;;2.45;1.90;;;;;;;;;;491274;28;993;-72
2023/04/23 00:39:42;;;;;;;2.20;2.00;;;;;;;;;;491076;28;1103;-73
2023/04/23 00:40:24;;;;;;;3.17;2.10;;;;;;;;;;488335;28;1263;-73
2023/04/23 00:41:28;;;;;;;2.47;2.10;;;;;;;;;;487806;28;1170;-72
2023/04/23 00:41:31;;;;;;;2.08;1.85;;;;;;;;;;497786;28;1321;-73
2023/04/23 00:42:01;;;;;;;2.45;2.08;;;;;;;;;;495369;28;1604;-73
2023/04/23 00:42:24;;;;;;;2.33;1.83;;;;;;;;;;494446;28;1250;-73
2023/04/23 00:43:04;;;;;;;3.00;1.90;;;;;;;;;;486305;28;1237;-73
2023/04/23 00:43:47;;;;;;;2.78;2.20;;;;;;;;;;490401;27;1137;-73
2023/04/23 00:44:07;;;;;;;2.67;2.47;;;;;;;;;;484780;28;1365;-72
2023/04/23 00:44:56;;;;;;;3.85;2.28;;;;;;;;;;483095;28;1359;-72
2023/04/23 00:45:17;;;;;;;2.15;1.95;;;;;;;;;;481036;28;1286;-72
2023/04/23 00:45:44;;;;;;;2.13;1.92;;;;;;;;;;485768;28;1155;-73
2023/04/23 00:46:52;;;;;;;3.38;2.00;;;;;;;;;;481091;28;1216;-72
2023/04/23 00:47:11;;;;;;;2.33;1.92;;;;;;;;;;487346;28;1341;-73
2023/04/23 00:47:48;;;;;;;2.20;2.00;;;;;;;;;;488823;28;1329;-72
2023/04/23 00:48:10;;;;;;;2.55;2.00;;;;;;;;;;487248;28;1120;-73
2023/04/23 00:48:41;;;;;;;2.20;2.00;;;;;;;;;;485485;28;1324;-73
2023/04/23 00:48:57;;;;;;;2.33;1.90;;;;;;;;;;484965;28;1212;-73
2023/04/23 00:49:30;;;;;;;2.33;2.00;;;;;;;;;;483256;28;1189;-73
2023/04/23 00:49:50;;;;;;;2.30;2.10;;;;;;;;;;484955;28;1304;-73
2023/04/23 00:50:07;;;;;;;2.60;2.10;;;;;;;;;;483061;28;1250;-73
2023/04/23 00:50:31;;;;;;;2.97;2.30;;;;;;;;;;488686;28;1190;-74
2023/04/23 00:50:59;;;;;;;2.50;2.20;;;;;;;;;;484076;28;1221;-72
2023/04/23 00:51:28;;;;;;;;;;;;;;;;;;;;;
2023/04/23 00:51:50;;;;;;;2.83;2.10;;;;;;;;;;488408;28;1135;-72
2023/04/23 00:52:37;;;;;;;2.75;2.10;;;;;;;;;;482403;28;1266;-73
2023/04/23 00:53:10;;;;;;;3.38;2.35;;;;;;;;;;478821;28;1523;-72
2023/04/23 00:53:35;;;;;;;2.70;2.40;;;;;;;;;;476476;28;1298;-72
2023/04/23 00:53:51;;;;;;;2.55;2.30;;;;;;;;;;478782;28;1082;-74
2023/04/23 00:55:04;;;;;;;2.60;2.35;;;;;;;;;;477579;28;1917;-73
2023/04/23 00:55:47;;;;;;;;;;;;;;;;;;;;;
2023/04/23 00:56:12;;;;;;;2.50;2.30;;;;;;;;;;481520;28;1247;-71
2023/04/23 00:57:02;;;;;;;2.70;2.30;;;;;;;;;;475170;28;1293;-73
2023/04/23 00:57:24;;;;;;;3.28;2.40;;;;;;;;;;476853;29;1943;-74
2023/04/23 00:57:41;;;;;;;2.53;2.33;;;;;;;;;;471855;29;1094;-73
2023/04/23 00:58:06;;;;;;;3.15;2.45;;;;;;;;;;479682;29;1330;-73
2023/04/23 00:58:27;;;;;;;3.55;2.40;;;;;;;;;;471684;29;1331;-74
2023/04/23 00:59:07;;;;;;;3.10;2.30;;;;;;;;;;468748;29;1378;-72
2023/04/23 00:59:32;;;;;;;3.28;2.40;;;;;;;;;;463821;29;1268;-73
2023/04/23 00:59:53;;;;;;;3.65;2.45;;;;;;;;;;467257;29;1949;-72
2023/04/23 01:00:13;;;;;;;3.47;2.33;;;;;;;;;;470622;29;1367;-73
2023/04/23 01:00:32;;;;;;;3.08;2.30;;;;;;;;;;476398;29;1354;-73
2023/04/23 01:00:50;;;;;;;2.60;2.30;;;;;;;;;;469684;29;1097;-72
2023/04/23 01:01:19;;;;;;;2.58;2.20;;;;;;;;;;468279;29;1389;-73
2023/04/23 01:01:37;;;;;;;2.88;2.28;;;;;;;;;;468479;29;1248;-74
2023/04/23 01:03:41;;;;;;;2.55;2.20;;;;;;;;;;468863;29;1206;-71
2023/04/23 01:04:20;;;;;;;3.25;2.50;;;;;;;;;;475169;29;2241;-71
2023/04/23 01:05:05;;;;;;;3.83;2.50;;;;;;;;;;474888;29;1150;-72
2023/04/23 01:05:45;;;;;;;2.58;2.30;;;;;;;;;;470848;29;1154;-73
2023/04/23 01:06:33;;;;;;;2.60;2.40;;;;;;;;;;467726;29;1282;-73
2023/04/23 01:07:06;;;;;;;2.50;2.30;;;;;;;;;;472255;29;1279;-73
2023/04/23 01:07:35;;;;;;;3.40;2.42;;;;;;;;;;470850;29;1274;-74
2023/04/23 01:08:07;;;;;;;3.00;2.43;;;;;;;;;;469494;29;1279;-72
2023/04/23 01:08:49;;;;;;;3.03;2.70;;;;;;;;;;472240;29;1262;-73
2023/04/23 01:09:17;;;;;;;3.97;2.60;;;;;;;;;;470482;29;1263;-73
2023/04/23 01:09:54;;;;;;;3.63;2.80;;;;;;;;;;477081;29;1183;-73
2023/04/23 01:10:31;;;;;;;3.60;2.35;;;;;;;;;;474930;29;1246;-73
2023/04/23 01:10:58;;;;;;;2.83;2.60;;;;;;;;;;468734;29;1211;-73
2023/04/23 01:11:46;;;;;;;3.08;2.45;;;;;;;;;;470258;29;1930;-72
2023/04/23 01:12:19;;;;;;;2.83;2.60;;;;;;;;;;465248;29;1366;-72
2023/04/23 01:12:45;;;;;;;3.05;2.50;;;;;;;;;;467656;29;1449;-74
2023/04/23 01:13:14;;;;;;;4.18;2.78;;;;;;;;;;476538;29;1296;-72
2023/04/23 01:13:30;;;;;;;3.45;2.75;;;;;;;;;;470608;29;1231;-72
2023/04/23 01:13:46;;;;;;;3.00;2.58;;;;;;;;;;482639;29;1310;-75
2023/04/23 01:14:12;;;;;;;2.75;2.50;;;;;;;;;;470335;29;1137;-72
2023/04/23 01:14:34;;;;;;;2.78;2.50;;;;;;;;;;466068;29;1872;-71
2023/04/23 01:15:06;;;;;;;;;;;;;;;;;;;;;
2023/04/23 01:15:27;;;;;;;2.80;2.58;;;;;;;;;;468039;29;1056;-73
2023/04/23 01:15:49;;;;;;;2.65;2.45;;;;;;;;;;470790;29;1254;-73
2023/04/23 01:16:15;;;;;;;;;;;;;;;;;;;;;
2023/04/23 01:17:03;;;;;;;3.38;2.78;;;;;;;;;;474577;29;1231;-73
2023/04/23 01:17:55;;;;;;;2.90;2.60;;;;;;;;;;467788;29;1287;-72
2023/04/23 01:18:40;;;;;;;2.70;2.40;;;;;;;;;;477337;29;1308;-73
2023/04/23 01:19:04;;;;;;;3.72;2.65;;;;;;;;;;473617;29;1414;-73
2023/04/23 01:19:53;;;;;;;3.03;2.53;;;;;;;;;;471537;29;1333;-73
2023/04/23 01:20:38;;;;;;;3.72;2.60;;;;;;;;;;467442;29;1213;-73
2023/04/23 01:20:57;;;;;;;3.75;2.63;;;;;;;;;;465821;29;1315;-72
2023/04/23 01:21:20;;;;;;;3.30;2.80;;;;;;;;;;468984;29;1244;-72
2023/04/23 01:21:43;;;;;;;3.13;2.83;;;;;;;;;;467837;29;1188;-73
2023/04/23 01:22:13;;;;;;;3.33;2.75;;;;;;;;;;471142;29;1656;-73
2023/04/23 01:24:02;;;;;;;3.47;2.50;;;;;;;;;;477447;29;1411;-70
2023/04/23 01:24:38;;;;;;;2.88;2.50;;;;;;;;;;469235;29;1384;-73
2023/04/23 01:25:09;;;;;;;;;;;;;;;;;;;;;
2023/04/23 01:25:32;;;;;;;3.38;2.75;;;;;;;;;;471199;29;1093;-73
2023/04/23 01:25:54;;;;;;;3.20;2.72;;;;;;;;;;470635;29;1153;-72
2023/04/23 01:26:22;;;;;;;2.83;2.53;;;;;;;;;;470075;29;1370;-73
2023/04/23 01:26:41;;;;;;;3.15;2.50;;;;;;;;;;474243;29;1418;-73
2023/04/23 01:26:58;;;;;;;2.80;2.50;;;;;;;;;;473196;29;1395;-73
2023/04/23 01:27:40;;;;;;;2.78;2.58;;;;;;;;;;472802;29;1329;-73
2023/04/23 01:28:00;;;;;;;2.80;2.40;;;;;;;;;;465754;29;1386;-72
2023/04/23 01:28:16;;;;;;;2.50;2.30;;;;;;;;;;470665;29;1240;-73
2023/04/23 01:28:38;;;;;;;3.75;2.40;;;;;;;;;;467802;29;1244;-73
2023/04/23 01:29:18;;;;;;;3.00;2.38;;;;;;;;;;473991;29;1236;-72
2023/04/23 01:29:35;;;;;;;3.20;2.50;;;;;;;;;;476979;29;1125;-73
2023/04/23 01:30:15;;;;;;;3.77;2.67;;;;;;;;;;476306;29;1112;-73
2023/04/23 01:30:49;;;;;;;3.38;2.60;;;;;;;;;;477865;29;1297;-73
2023/04/23 01:31:26;;;;;;;3.38;2.55;;;;;;;;;;471675;28;1199;-73
2023/04/23 01:32:26;;;;;;;2.72;2.50;;;;;;;;;;480239;28;1886;-74
2023/04/23 01:33:00;;;;;;;2.70;2.50;;;;;;;;;;469360;29;1377;-74
2023/04/23 01:33:38;;;;;;;2.70;2.50;;;;;;;;;;474344;28;1193;-73
2023/04/23 01:34:05;;;;;;;2.75;2.50;;;;;;;;;;478373;28;1462;-73
2023/04/23 01:34:26;;;;;;;2.50;2.30;;;;;;;;;;481611;28;1602;-73
2023/04/23 01:34:52;;;;;;;2.60;2.38;;;;;;;;;;478667;28;1273;-72
2023/04/23 01:35:34;;;;;;;2.97;2.55;;;;;;;;;;479391;28;1133;-73
2023/04/23 01:36:02;;;;;;;2.90;2.67;;;;;;;;;;470987;29;1821;-74
2023/04/23 01:36:28;;;;;;;2.90;2.58;;;;;;;;;;476510;29;1235;-73
2023/04/23 01:36:47;;;;;;;3.20;2.50;;;;;;;;;;469075;29;1225;-72
2023/04/23 01:37:06;;;;;;;3.10;2.50;;;;;;;;;;478709;28;1343;-73
2023/04/23 01:37:29;;;;;;;3.10;2.60;;;;;;;;;;475600;28;1300;-72
2023/04/23 01:38:09;;;;;;;2.92;2.60;;;;;;;;;;476415;28;1098;-74
2023/04/23 01:38:37;;;;;;;2.90;2.70;;;;;;;;;;481238;28;1142;-72
2023/04/23 01:38:56;;;;;;;4.10;2.83;;;;;;;;;;478733;28;1154;-73
2023/04/23 01:39:12;;;;;;;4.35;2.80;;;;;;;;;;474816;28;1427;-73
2023/04/23 01:39:42;;;;;;;3.42;2.70;;;;;;;;;;481164;28;1292;-73
2023/04/23 01:40:04;;;;;;;2.80;2.57;;;;;;;;;;475028;28;1189;-73
2023/04/23 01:40:27;;;;;;;2.92;2.60;;;;;;;;;;480533;28;1247;-73
2023/04/23 01:40:46;;;;;;;3.20;2.45;;;;;;;;;;484863;28;1199;-72
2023/04/23 01:41:13;;;;;;;3.08;2.42;;;;;;;;;;473533;28;1325;-73
2023/04/23 01:44:07;;;;;;;2.60;2.40;;;;;;;;;;486871;28;1232;-73
2023/04/23 01:44:26;;;;;;;3.40;2.50;;;;;;;;;;476622;28;2064;-72
2023/04/23 01:44:47;;;;;;;3.88;2.65;;;;;;;;;;483801;28;1296;-73
2023/04/23 01:45:25;;;;;;;3.35;2.70;;;;;;;;;;474651;28;1271;-72
2023/04/23 01:45:59;;;;;;;3.42;2.60;;;;;;;;;;480696;28;1249;-71
2023/04/23 01:46:19;;;;;;;2.45;2.25;;;;;;;;;;486044;28;1227;-73
2023/04/23 01:46:53;;;;;;;2.70;2.50;;;;;;;;;;485205;28;1722;-72
2023/04/23 01:47:12;;;;;;;2.63;2.42;;;;;;;;;;486389;28;1415;-73
2023/04/23 01:47:49;;;;;;;2.70;2.50;;;;;;;;;;485238;28;1234;-73
2023/04/23 01:48:05;;;;;;;3.60;2.67;;;;;;;;;;480083;28;1790;-72
2023/04/23 01:49:05;;;;;;;2.95;2.50;;;;;;;;;;480681;28;1213;-73
2023/04/23 01:50:25;;;;;;;4.18;3.00;;;;;;;;;;480253;28;1200;-73
2023/04/23 01:50:57;;;;;;;;;;;;;;;;;;;;;
2023/04/23 01:51:24;;;;;;;;;;;;;;;;;;;;;
2023/04/23 01:51:49;;;;;;;4.00;2.88;;;;;;;;;;483149;28;1159;-73
2023/04/23 01:52:30;;;;;;;;;;;;;;;;;;;;;
2023/04/23 01:52:52;;;;;;;3.15;2.60;;;;;;;;;;487586;28;1070;-73
2023/04/23 01:53:14;;;;;;;2.80;2.50;;;;;;;;;;482954;28;1424;-73
2023/04/23 01:53:43;;;;;;;3.10;2.75;;;;;;;;;;481178;28;1074;-73
2023/04/23 01:54:08;;;;;;;3.00;2.70;;;;;;;;;;481424;28;1117;-73
2023/04/23 01:54:27;;;;;;;2.90;2.70;;;;;;;;;;485029;28;1390;-73
2023/04/23 01:55:03;;;;;;;3.05;2.75;;;;;;;;;;481316;28;1417;-73
2023/04/23 01:55:55;;;;;;;3.20;2.70;;;;;;;;;;484661;28;1335;-73
2023/04/23 01:56:18;;;;;;;3.28;2.70;;;;;;;;;;491793;27;1400;-73
2023/04/23 01:56:55;;;;;;;2.92;2.67;;;;;;;;;;492817;28;1208;-73
2023/04/23 01:57:14;;;;;;;2.83;2.63;;;;;;;;;;486439;28;1156;-73
2023/04/23 01:57:34;;;;;;;3.08;2.63;;;;;;;;;;487288;28;1597;-73
2023/04/23 01:57:59;;;;;;;3.50;2.80;;;;;;;;;;487487;28;1191;-72
2023/04/23 01:58:36;;;;;;;3.20;2.90;;;;;;;;;;486909;28;1330;-72
2023/04/23 01:59:23;;;;;;;3.92;2.60;;;;;;;;;;495133;28;1204;-73
2023/04/23 02:00:10;;;;;;;2.70;2.50;;;;;;;;;;500215;27;1460;-72
2023/04/23 02:00:51;;;;;;;;;;;;;;;;;;;;;
2023/04/23 02:01:20;;;;;;;2.97;2.67;;;;;;;;;;493623;27;1280;-72
2023/04/23 02:02:03;;;;;;;2.60;2.40;;;;;;;;;;494251;27;1758;-72
2023/04/23 02:02:52;;;;;;;2.80;2.50;;;;;;;;;;487202;28;1247;-73
2023/04/23 02:03:34;;;;;;;2.78;2.50;;;;;;;;;;487593;28;1215;-73
2023/04/23 02:04:01;;;;;;;3.00;2.63;;;;;;;;;;498455;28;1178;-73
2023/04/23 02:04:36;;;;;;;4.60;2.85;;;;;;;;;;492837;28;1231;-73
2023/04/23 02:05:07;;;;;;;3.22;2.90;;;;;;;;;;491113;28;1597;-73
2023/04/23 02:06:04;;;;;;;;;;;;;;;;;;;;;
2023/04/23 02:06:35;;;;;;;3.08;2.72;;;;;;;;;;483668;28;1450;-73
2023/04/23 02:06:55;;;;;;;2.92;2.70;;;;;;;;;;485560;28;1265;-72
2023/04/23 02:07:40;;;;;;;;;;;;;;;;;;;;;
2023/04/23 02:08:02;;;;;;;2.92;2.50;;;;;;;;;;490482;27;1548;-74
2023/04/23 02:08:43;;;;;;;;;;;;;;;;;;;;;
2023/04/23 02:09:12;;;;;;;2.90;2.60;;;;;;;;;;495270;27;1020;-74
2023/04/23 02:09:53;;;;;;;2.83;2.60;;;;;;;;;;491730;27;1691;-73
2023/04/23 02:10:34;;;;;;;2.97;2.60;;;;;;;;;;482636;28;1221;-73
2023/04/23 02:11:03;;;;;;;;;;;;;;;;;;;;;
2023/04/23 02:11:26;;;;;;;3.17;2.60;;;;;;;;;;484600;28;1269;-73
2023/04/23 02:11:57;;;;;;;;;;;;;;;;;;;;;
2023/04/23 02:12:23;;;;;;;2.80;2.60;;;;;;;;;;482237;28;1117;-74
2023/04/23 02:13:20;;;;;;;;;;;;;;;;;;;;;
2023/04/23 02:13:36;;;;;;;2.75;2.40;;;;;;;;;;489107;28;1204;-74
2023/04/23 02:14:13;;;;;;;3.07;2.40;;;;;;;;;;485239;28;1243;-74
2023/04/23 02:14:38;;;;;;;3.00;2.70;;;;;;;;;;488195;28;1178;-75
2023/04/23 02:15:32;;;;;;;3.60;2.65;;;;;;;;;;485264;28;1764;-73
2023/04/23 02:15:48;;;;;;;2.63;2.42;;;;;;;;;;481621;28;1323;-74
2023/04/23 02:16:09;;;;;;;3.05;2.60;;;;;;;;;;489333;28;1323;-73
2023/04/23 02:16:47;;;;;;;3.08;2.60;;;;;;;;;;494940;28;1254;-73
2023/04/23 02:17:09;;;;;;;2.92;2.55;;;;;;;;;;486188;28;1109;-73
2023/04/23 02:17:34;;;;;;;2.60;2.40;;;;;;;;;;490644;28;1140;-74
2023/04/23 02:17:53;;;;;;;2.90;2.60;;;;;;;;;;486607;28;1209;-74
2023/04/23 02:18:42;;;;;;;3.20;2.50;;;;;;;;;;483243;28;1230;-74
2023/04/23 02:19:01;;;;;;;3.42;2.67;;;;;;;;;;485350;28;1121;-75
2023/04/23 02:19:42;;;;;;;2.70;2.50;;;;;;;;;;484593;28;1267;-74
2023/04/23 02:20:09;;;;;;;2.97;2.60;;;;;;;;;;481846;28;1406;-74
2023/04/23 02:20:42;;;;;;;3.08;2.70;;;;;;;;;;484529;28;1125;-74
2023/04/23 02:21:05;;;;;;;4.30;2.90;;;;;;;;;;486405;28;1317;-73
2023/04/23 02:21:40;;;;;;;;;;;;;;;;;;;;;
2023/04/23 02:22:23;;;;;;;2.85;2.50;;;;;;;;;;487662;28;1027;-74
2023/04/23 02:23:11;;;;;;;3.00;2.70;;;;;;;;;;491931;28;1573;-74
2023/04/23 02:23:30;;;;;;;3.30;2.60;;;;;;;;;;486399;28;1337;-75
2023/04/23 02:24:00;;;;;;;3.10;2.70;;;;;;;;;;494132;28;1276;-75
2023/04/23 02:24:24;;;;;;;3.45;2.53;;;;;;;;;;491111;28;1232;-74
2023/04/23 02:24:43;;;;;;;3.65;2.70;;;;;;;;;;490015;28;1485;-74
2023/04/23 02:25:05;;;;;;;2.97;2.67;;;;;;;;;;490835;28;1486;-74
2023/04/23 02:25:37;;;;;;;2.60;2.40;;;;;;;;;;487964;28;1263;-74
2023/04/23 02:25:53;;;;;;;2.83;2.60;;;;;;;;;;484080;28;1238;-74
2023/04/23 02:26:10;;;;;;;2.88;2.60;;;;;;;;;;487325;28;1258;-74
2023/04/23 02:26:31;;;;;;;3.40;2.67;;;;;;;;;;492633;28;1547;-74
2023/04/23 02:26:51;;;;;;;2.88;2.58;;;;;;;;;;485764;28;1371;-73
2023/04/23 02:27:31;;;;;;;3.30;2.63;;;;;;;;;;487175;28;934;-74
2023/04/23 02:27:50;;;;;;;3.00;2.70;;;;;;;;;;486400;28;1179;-74
2023/04/23 02:28:12;;;;;;;3.13;2.60;;;;;;;;;;492672;28;1548;-74
2023/04/23 02:28:40;;;;;;;3.55;2.70;;;;;;;;;;482951;28;1077;-73
2023/04/23 02:29:12;;;;;;;;;;;;;;;;;;;;;
2023/04/23 02:30:08;;;;;;;3.05;2.75;;;;;;;;;;483513;28;1087;-75
2023/04/23 02:30:28;;;;;;;2.85;2.55;;;;;;;;;;486455;27;1304;-74
2023/04/23 02:31:24;;;;;;;3.90;3.08;;;;;;;;;;496108;27;1155;-75
2023/04/23 02:31:55;;;;;;;4.07;2.70;;;;;;;;;;491765;28;1413;-73
2023/04/23 02:52:56;;;;;;;;;;;;;;;;;;;;;
2023/04/23 02:55:01;;;;;;;3.35;3.03;;;;;;;;;;483850;28;1648;-74
2023/04/23 02:55:24;;;;;;;3.28;2.97;;;;;;;;;;483838;28;1260;-73
2023/04/23 02:55:55;;;;;;;3.67;3.22;;;;;;;;;;482973;28;1154;-73
2023/04/23 02:56:56;;;;;;;4.10;3.70;;;;;;;;;;483493;28;1062;-73
2023/04/23 02:56:56;;;;;;;3.83;3.53;;;;;;;;;;476251;28;873;-73
2023/04/23 02:57:16;;;;;;;3.78;3.40;;;;;;;;;;480850;28;1177;-73
2023/04/23 02:57:34;;;;;;;3.72;3.40;;;;;;;;;;486397;28;1349;-74
2023/04/23 02:57:56;;;;;;;4.00;3.60;;;;;;;;;;485810;28;1182;-74
2023/04/23 02:58:21;;;;;;;4.47;3.65;;;;;;;;;;480096;28;1278;-73
2023/04/23 02:58:45;;;;;;;4.18;3.70;;;;;;;;;;487825;28;1206;-74
2023/04/23 02:59:24;;;;;;;3.92;3.63;;;;;;;;;;473066;28;1436;-74
2023/04/23 02:59:49;;;;;;;4.30;3.90;;;;;;;;;;485529;28;1210;-74
2023/04/23 03:00:13;;;;;;;4.20;3.80;;;;;;;;;;491597;28;918;-74
2023/04/23 03:00:30;;;;;;;4.43;3.60;;;;;;;;;;478453;28;1357;-73
2023/04/23 03:01:09;;;;;;;4.63;3.63;;;;;;;;;;477583;28;1063;-73
2023/04/23 03:01:46;;;;;;;4.75;3.78;;;;;;;;;;482962;28;1326;-74
2023/04/23 03:02:11;;;;;;;4.45;4.05;;;;;;;;;;482505;28;1679;-72
2023/04/23 03:02:35;;;;;;;4.40;4.00;;;;;;;;;;485118;28;1182;-74
2023/04/23 03:03:14;;;;;;;4.00;3.70;;;;;;;;;;489933;28;1284;-72
2023/04/23 03:03:30;;;;;;;4.28;3.83;;;;;;;;;;488356;28;1114;-73
2023/04/23 03:03:47;;;;;;;4.50;4.10;;;;;;;;;;481807;28;1225;-73
2023/04/23 03:04:51;;;;;;;5.10;4.53;;;;;;;;;;480134;28;1197;-73
2023/04/23 03:05:39;;;;;;;4.45;4.00;;;;;;;;;;487316;28;1078;-72
2023/04/23 03:06:11;;;;;;;3.92;3.53;;;;;;;;;;481845;29;1610;-73
2023/04/23 03:06:58;;;;;;;;;;;;;;;;;;;;;
2023/04/23 03:07:20;;;;;;;4.57;4.05;;;;;;;;;;484905;28;1086;-72
2023/04/23 03:07:37;;;;;;;4.30;3.90;;;;;;;;;;477625;28;1283;-74
2023/04/23 03:08:14;;;;;;;4.28;3.88;;;;;;;;;;484740;28;1088;-73
2023/04/23 03:08:36;;;;;;;4.55;3.88;;;;;;;;;;486755;28;1347;-73
2023/04/23 03:09:15;;;;;;;4.65;3.80;;;;;;;;;;482196;28;2001;-73
2023/04/23 03:09:35;;;;;;;4.53;4.13;;;;;;;;;;483033;28;1734;-73
2023/04/23 03:09:56;;;;;;;4.65;4.22;;;;;;;;;;483718;28;1118;-74
2023/04/23 03:10:25;;;;;;;4.57;4.18;;;;;;;;;;484078;28;1285;-73
2023/04/23 03:11:05;;;;;;;4.30;3.90;;;;;;;;;;479542;28;1290;-73
2023/04/23 03:12:17;;;;;;;4.22;3.83;;;;;;;;;;484518;28;1245;-72
2023/04/23 03:12:32;;;;;;;4.20;3.80;;;;;;;;;;476397;28;1867;-74
2023/04/23 03:13:06;;;;;;;;;;;;;;;;;;;;;
2023/04/23 03:13:30;;;;;;;4.07;3.72;;;;;;;;;;475698;28;1153;-73
2023/04/23 03:13:59;;;;;;;4.07;3.60;;;;;;;;;;474555;28;1378;-74
2023/04/23 03:14:51;;;;;;;;;;;;;;;;;;;;;
2023/04/23 03:15:29;;;;;;;;;;;;;;;;;;;;;
2023/04/23 03:15:46;;;;;;;4.28;3.72;;;;;;;;;;478762;28;1142;-74
2023/04/23 03:16:05;;;;;;;4.00;3.60;;;;;;;;;;474071;28;1543;-74
2023/04/23 03:16:37;;;;;;;;;;;;;;;;;;;;;
2023/04/23 03:16:59;;;;;;;3.40;3.10;;;;;;;;;;477207;28;1138;-73
2023/04/23 03:18:25;;;;;;;3.70;3.40;;;;;;;;;;475695;29;1451;-74
2023/04/23 03:18:47;;;;;;;4.93;3.88;;;;;;;;;;477733;29;1310;-72
2023/04/23 03:19:50;;;;;;;3.92;3.55;;;;;;;;;;478248;28;1115;-72
2023/04/23 03:20:15;;;;;;;4.68;3.90;;;;;;;;;;475551;29;1254;-74
2023/04/23 03:20:49;;;;;;;;;;;;;;;;;;;;;
2023/04/23 03:21:31;;;;;;;;;;;;;;;;;;;;;
2023/04/23 03:23:09;;;;;;;4.15;3.75;;;;;;;;;;483393;28;1174;-73
2023/04/23 03:25:47;;;;;;;4.38;3.97;;;;;;;;;;474408;29;1135;-73
2023/04/23 03:26:16;;;;;;;4.40;3.88;;;;;;;;;;468508;29;1287;-73
2023/04/23 03:26:57;;;;;;;4.20;3.80;;;;;;;;;;463684;29;1448;-74
2023/04/23 03:27:13;;;;;;;3.65;3.35;;;;;;;;;;470788;29;2095;-73
2023/04/23 03:27:39;;;;;;;3.72;3.42;;;;;;;;;;465689;29;1448;-74
2023/04/23 03:28:23;;;;;;;4.10;3.70;;;;;;;;;;463277;29;1182;-74
2023/04/23 03:28:48;;;;;;;4.20;3.80;;;;;;;;;;466534;29;1081;-74
2023/04/23 03:29:17;;;;;;;5.40;4.10;;;;;;;;;;466913;29;1255;-73
2023/04/23 03:29:35;;;;;;;4.13;3.70;;;;;;;;;;468883;29;1219;-74
2023/04/23 03:30:22;;;;;;;4.80;3.90;;;;;;;;;;464324;29;1123;-73
2023/04/23 03:31:01;;;;;;;4.63;4.15;;;;;;;;;;473487;29;1291;-74
2023/04/23 03:31:27;;;;;;;5.22;4.10;;;;;;;;;;470985;29;1734;-74
2023/04/23 03:31:57;;;;;;;4.95;3.92;;;;;;;;;;474646;29;1542;-74
2023/04/23 03:32:22;;;;;;;4.63;3.80;;;;;;;;;;476417;29;2000;-73
2023/04/23 03:32:38;;;;;;;4.10;3.80;;;;;;;;;;476434;29;1756;-74
2023/04/23 03:33:18;;;;;;;4.25;3.85;;;;;;;;;;473232;29;1149;-74
2023/04/23 03:33:39;;;;;;;4.10;3.70;;;;;;;;;;470260;29;1219;-74
2023/04/23 03:35:28;;;;;;;4.50;3.70;;;;;;;;;;458381;29;2072;-74
2023/04/23 03:36:07;;;;;;;4.80;3.80;;;;;;;;;;466278;29;1657;-74
2023/04/23 03:36:45;;;;;;;;;;;;;;;;;;;;;
2023/04/23 03:37:10;;;;;;;4.03;3.63;;;;;;;;;;460067;29;1213;-73
2023/04/23 03:37:27;;;;;;;4.10;3.70;;;;;;;;;;460056;29;1868;-74
2023/04/23 03:37:45;;;;;;;3.92;3.55;;;;;;;;;;463856;29;1201;-73
2023/04/23 03:38:01;;;;;;;3.80;3.50;;;;;;;;;;466085;29;1215;-74
2023/04/23 03:38:24;;;;;;;4.05;3.53;;;;;;;;;;463729;29;1118;-74
2023/04/23 03:38:43;;;;;;;3.95;3.55;;;;;;;;;;460777;29;1815;-73
2023/04/23 03:39:04;;;;;;;4.10;3.70;;;;;;;;;;463844;29;1166;-73
2023/04/23 03:39:28;;;;;;;3.80;3.50;;;;;;;;;;468771;29;1220;-73
2023/04/23 03:40:06;;;;;;;3.40;3.10;;;;;;;;;;465362;29;1331;-74
2023/04/23 03:40:27;;;;;;;3.95;3.40;;;;;;;;;;473650;29;1097;-73
2023/04/23 03:40:47;;;;;;;3.83;3.42;;;;;;;;;;465544;29;1638;-73
2023/04/23 03:41:09;;;;;;;3.63;3.13;;;;;;;;;;471098;29;1204;-74
2023/04/23 03:41:28;;;;;;;3.80;3.45;;;;;;;;;;468400;29;1360;-73
2023/04/23 03:42:04;;;;;;;4.22;3.45;;;;;;;;;;473682;29;1446;-71
2023/04/23 03:43:47;;;;;;;;;;;;;;;;;;;;;
2023/04/23 03:44:39;;;;;;;;;;;;;;;;;;;;;
2023/04/23 03:45:20;;;;;;;3.63;3.30;;;;;;;;;;470653;29;1351;-73
2023/04/23 03:45:52;;;;;;;3.67;3.38;;;;;;;;;;470198;29;1265;-73
2023/04/23 03:46:34;;;;;;;4.20;3.38;;;;;;;;;;467032;29;1162;-73
2023/04/23 03:47:04;;;;;;;3.67;3.38;;;;;;;;;;465877;29;1482;-73
2023/04/23 03:47:35;;;;;;;3.80;3.30;;;;;;;;;;467537;29;1378;-74
2023/04/23 03:47:54;;;;;;;3.50;3.20;;;;;;;;;;471287;29;2020;-73
2023/04/23 03:48:10;;;;;;;3.80;3.40;;;;;;;;;;468290;29;1083;-74
2023/04/23 03:48:26;;;;;;;3.63;3.30;;;;;;;;;;469691;29;1223;-72
2023/04/23 03:48:52;;;;;;;3.50;3.20;;;;;;;;;;470258;29;1114;-74
2023/04/23 03:49:26;;;;;;;3.42;3.13;;;;;;;;;;471552;29;1255;-74
2023/04/23 03:49:50;;;;;;;3.50;3.20;;;;;;;;;;467615;29;1180;-73
2023/04/23 03:50:34;;;;;;;3.22;2.92;;;;;;;;;;471485;29;1497;-73